Time;durP1;ratioP1;P1;durP2;ratioP2;P2;SDS_P1;SDS_P2;PMS_P1;PMS_P2;Temp;Humidity;BMP_temperature;BMP_pressure;BME280_temperature;BME280_humidity;BME280_pressure;Samples;Min_cycle;Max_cycle;Signal;HPM_P1;HPM_P2
2023/03/22 00:00:26;;;;;;;5.47;3.87;;;13.70;99.90;;;;;;4989341;28;20374;-73
2023/03/22 00:02:54;;;;;;;6.80;4.40;;;13.70;99.90;;;;;;4991144;28;20586;-73
2023/03/22 00:05:19;;;;;;;8.87;5.07;;;13.70;99.90;;;;;;4989284;28;20933;-73
2023/03/22 00:07:48;;;;;;;4.20;3.67;;;13.70;99.90;;;;;;4985866;28;20595;-73
2023/03/22 00:10:16;;;;;;;5.40;3.80;;;13.70;99.90;;;;;;4982995;28;20738;-73
2023/03/22 00:12:42;;;;;;;6.30;4.80;;;13.70;99.90;;;;;;4974385;28;20178;-73
2023/03/22 00:15:09;;;;;;;5.00;4.50;;;13.70;99.90;;;;;;4994886;28;21157;-73
2023/03/22 00:17:35;;;;;;;6.27;4.83;;;13.70;99.90;;;;;;4985483;28;20172;-73
2023/03/22 00:20:05;;;;;;;7.00;3.93;;;13.70;99.90;;;;;;4980068;28;21189;-73
2023/03/22 00:22:31;;;;;;;4.75;4.20;;;13.70;99.90;;;;;;4974650;28;20198;-74
2023/03/22 00:24:57;;;;;;;6.72;5.05;;;13.70;99.90;;;;;;4974930;28;20207;-73
2023/03/22 00:27:23;;;;;;;5.80;4.80;;;13.80;99.90;;;;;;4957464;28;20204;-73
2023/03/22 00:29:51;;;;;;;5.53;4.03;;;13.80;99.90;;;;;;4957533;28;20642;-73
2023/03/22 00:32:16;;;;;;;7.35;4.32;;;13.70;99.90;;;;;;4957592;28;20180;-73
2023/03/22 00:34:42;;;;;;;5.57;5.07;;;13.70;99.90;;;;;;4972988;28;20183;-73
2023/03/22 00:37:08;;;;;;;5.63;5.13;;;13.80;99.90;;;;;;4973540;28;20182;-73
2023/03/22 00:39:34;;;;;;;5.47;4.50;;;13.80;99.90;;;;;;4972827;28;20230;-74
2023/03/22 00:42:00;;;;;;;5.50;4.20;;;13.80;99.90;;;;;;4974680;28;20183;-73
2023/03/22 00:44:26;;;;;;;4.73;4.07;;;13.80;99.90;;;;;;4973150;28;20176;-73
2023/03/22 00:46:52;;;;;;;5.03;4.63;;;13.80;99.90;;;;;;4957337;28;20618;-73
2023/03/22 00:49:18;;;;;;;6.23;4.60;;;13.80;99.90;;;;;;4972532;28;20222;-73
2023/03/22 00:51:44;;;;;;;6.77;4.47;;;13.80;99.90;;;;;;4989424;28;20204;-73
2023/03/22 00:54:10;;;;;;;6.27;4.70;;;13.80;99.90;;;;;;4974612;28;20529;-73
2023/03/22 00:56:37;;;;;;;6.70;5.05;;;13.80;99.90;;;;;;4973837;28;20582;-73
2023/03/22 00:59:12;;;;;;;5.72;4.40;;;13.70;99.90;;;;;;4973167;28;20211;-73
2023/03/22 01:01:39;;;;;;;5.45;3.90;;;13.70;99.90;;;;;;4972558;28;20183;-73
2023/03/22 01:04:05;;;;;;;6.17;5.23;;;13.70;99.90;;;;;;4956734;28;20172;-73
2023/03/22 01:06:32;;;;;;;5.22;4.70;;;13.70;99.90;;;;;;4973875;28;20589;-73
2023/03/22 01:08:58;;;;;;;6.23;5.50;;;13.70;99.90;;;;;;4974037;28;20295;-73
2023/03/22 01:11:24;;;;;;;5.47;4.53;;;13.60;99.90;;;;;;4956253;28;21210;-73
2023/03/22 01:13:51;;;;;;;8.85;5.40;;;13.60;99.90;;;;;;4972634;28;20262;-74
2023/03/22 01:16:17;;;;;;;6.35;5.75;;;13.50;99.90;;;;;;4974209;28;20172;-73
2023/03/22 01:18:43;;;;;;;4.93;4.32;;;13.50;99.90;;;;;;4971721;28;20254;-73
2023/03/22 01:21:10;;;;;;;5.70;4.80;;;13.50;99.90;;;;;;4956654;28;20581;-73
2023/03/22 01:23:36;;;;;;;5.53;4.90;;;13.50;99.90;;;;;;4972373;28;20598;-74
2023/03/22 01:26:02;;;;;;;5.80;4.80;;;13.50;99.90;;;;;;4972629;28;21175;-73
2023/03/22 01:28:29;;;;;;;4.60;4.05;;;13.50;99.90;;;;;;4955807;28;20587;-73
2023/03/22 01:30:55;;;;;;;6.50;4.87;;;13.50;99.90;;;;;;4972544;28;20168;-73
2023/03/22 01:33:21;;;;;;;6.70;5.37;;;13.50;99.90;;;;;;4972000;28;20567;-73
2023/03/22 01:35:47;;;;;;;6.50;5.13;;;13.50;99.90;;;;;;4972293;28;20579;-73
2023/03/22 01:38:13;;;;;;;7.37;5.07;;;13.50;99.90;;;;;;4956206;28;20632;-73
2023/03/22 01:40:48;;;;;;;5.80;4.35;;;13.50;99.90;;;;;;4971838;28;20575;-73
2023/03/22 01:43:15;;;;;;;5.77;4.83;;;13.50;99.90;;;;;;4972302;28;20199;-73
2023/03/22 01:45:50;;;;;;;5.20;4.63;;;13.60;99.90;;;;;;4955844;28;20192;-73
2023/03/22 01:48:22;;;;;;;5.90;4.78;;;13.60;99.90;;;;;;4955851;28;20716;-74
2023/03/22 01:51:01;;;;;;;5.13;4.63;;;13.60;99.90;;;;;;4971864;28;20179;-73
2023/03/22 01:53:31;;;;;;;5.78;4.65;;;13.50;99.90;;;;;;4972000;28;20183;-73
2023/03/22 01:55:58;;;;;;;6.40;4.80;;;13.60;99.90;;;;;;4971637;28;20211;-73
2023/03/22 01:58:29;;;;;;;5.68;4.90;;;13.50;99.90;;;;;;4971755;28;20175;-73
2023/03/22 02:00:59;;;;;;;5.50;4.32;;;13.50;99.90;;;;;;4971356;28;20178;-73
2023/03/22 02:03:47;;;;;;;6.23;4.40;;;13.40;99.90;;;;;;4955626;28;20175;-73
2023/03/22 02:06:14;;;;;;;4.93;4.45;;;13.40;99.90;;;;;;4972038;28;21009;-73
2023/03/22 02:08:41;;;;;;;5.25;4.20;;;13.30;99.90;;;;;;4955468;28;20217;-74
2023/03/22 02:11:16;;;;;;;4.93;4.15;;;13.30;99.90;;;;;;4955448;28;20686;-73
2023/03/22 02:14:04;;;;;;;6.88;3.95;;;13.20;99.90;;;;;;4954321;28;20533;-73
2023/03/22 02:17:28;;;;;;;4.07;3.70;;;13.20;99.90;;;;;;4971651;28;20183;-73
2023/03/22 02:20:14;;;;;;;4.97;4.47;;;13.10;99.90;;;;;;4954697;28;20206;-73
2023/03/22 02:23:09;;;;;;;5.80;4.28;;;13.20;99.90;;;;;;4971442;28;20540;-74
2023/03/22 02:26:16;;;;;;;5.75;4.55;;;13.10;99.90;;;;;;4971694;28;20235;-73
2023/03/22 02:29:02;;;;;;;5.57;4.38;;;13.10;99.90;;;;;;4954260;28;20274;-73
2023/03/22 02:31:56;;;;;;;4.45;2.80;;;13.10;99.90;;;;;;4972040;28;20168;-73
2023/03/22 02:34:53;;;;;;;7.63;4.32;;;13.10;99.90;;;;;;4954338;28;20223;-73
2023/03/22 02:37:55;;;;;;;4.63;3.30;;;13.10;99.90;;;;;;4955309;28;20259;-74
2023/03/22 02:40:44;;;;;;;5.40;3.20;;;13.00;99.90;;;;;;4954765;28;20250;-73
2023/03/22 02:43:29;;;;;;;8.13;3.28;;;13.00;99.90;;;;;;4987603;28;20178;-74
2023/03/22 02:46:06;;;;;;;5.97;3.80;;;12.90;99.90;;;;;;4987022;28;20584;-73
2023/03/22 02:48:43;;;;;;;6.05;4.38;;;12.90;99.90;;;;;;4987293;28;20179;-74
2023/03/22 02:51:24;;;;;;;5.20;3.65;;;12.90;99.90;;;;;;4954826;28;20625;-73
2023/03/22 02:54:01;;;;;;;5.70;3.97;;;12.80;99.90;;;;;;4972426;28;20203;-73
2023/03/22 02:56:34;;;;;;;9.15;4.43;;;12.80;99.90;;;;;;4954637;28;20176;-73
2023/03/22 02:59:05;;;;;;;5.32;4.32;;;12.80;99.90;;;;;;4970922;28;20718;-73
2023/03/22 03:01:44;;;;;;;6.90;3.95;;;12.70;99.90;;;;;;4987057;28;20183;-73
2023/03/22 03:04:26;;;;;;;8.80;4.15;;;12.70;99.90;;;;;;4972517;28;20178;-73
2023/03/22 03:06:56;;;;;;;5.32;4.30;;;12.70;99.90;;;;;;4971973;28;20183;-74
2023/03/22 03:09:23;;;;;;;3.45;3.05;;;12.60;99.90;;;;;;4954901;28;20218;-74
2023/03/22 03:11:51;;;;;;;4.55;3.67;;;12.60;99.90;;;;;;4954694;28;20696;-74
2023/03/22 03:14:23;;;;;;;7.65;4.88;;;12.60;99.90;;;;;;4954371;28;20235;-73
2023/03/22 03:17:07;;;;;;;6.22;3.50;;;12.60;99.90;;;;;;4987485;28;20514;-73
2023/03/22 03:19:46;;;;;;;6.03;3.22;;;12.60;99.90;;;;;;4970730;28;20619;-73
2023/03/22 03:22:22;;;;;;;6.10;3.95;;;12.60;99.90;;;;;;4970980;28;20262;-73
2023/03/22 03:25:17;;;;;;;4.93;3.72;;;12.50;99.90;;;;;;4970436;28;20179;-73
2023/03/22 03:28:12;;;;;;;4.80;2.85;;;12.50;99.90;;;;;;4972424;28;20585;-73
2023/03/22 03:31:15;;;;;;;5.00;3.22;;;12.50;99.90;;;;;;4986785;28;20207;-73
2023/03/22 03:34:01;;;;;;;4.00;2.45;;;12.50;99.90;;;;;;4971139;28;20171;-75
2023/03/22 03:36:29;;;;;;;3.75;2.60;;;12.50;99.90;;;;;;4970577;28;20640;-73
2023/03/22 03:38:57;;;;;;;5.22;3.80;;;12.40;99.90;;;;;;4972095;28;20188;-73
2023/03/22 03:41:28;;;;;;;4.50;3.00;;;12.40;99.90;;;;;;4970601;28;20895;-74
2023/03/22 03:43:56;;;;;;;4.35;3.47;;;12.40;99.90;;;;;;4974702;28;20176;-73
2023/03/22 03:46:22;;;;;;;4.50;2.50;;;12.40;99.90;;;;;;4974263;28;20211;-73
2023/03/22 03:48:52;;;;;;;3.60;3.03;;;12.40;99.90;;;;;;4958343;28;20250;-72
2023/03/22 03:51:18;;;;;;;5.07;3.90;;;12.40;99.90;;;;;;4977097;28;20194;-73
2023/03/22 03:53:45;;;;;;;3.40;2.72;;;12.40;99.90;;;;;;4993943;28;20171;-73
2023/03/22 03:56:10;;;;;;;3.17;2.40;;;12.40;99.90;;;;;;4993446;28;20289;-73
2023/03/22 03:58:41;;;;;;;6.32;3.15;;;12.40;99.90;;;;;;4993606;28;20645;-73
2023/03/22 04:01:07;;;;;;;7.00;2.63;;;12.40;99.90;;;;;;4969396;28;20282;-73
2023/03/22 04:03:54;;;;;;;3.63;2.25;;;12.40;99.90;;;;;;4993420;28;20183;-73
2023/03/22 04:06:33;;;;;;;5.00;3.55;;;12.30;99.90;;;;;;4961509;28;20194;-73
2023/03/22 04:09:03;;;;;;;4.35;2.90;;;12.30;99.90;;;;;;4973612;28;20219;-73
2023/03/22 04:11:32;;;;;;;6.53;3.10;;;12.30;99.90;;;;;;4958117;28;20198;-73
2023/03/22 04:14:00;;;;;;;4.10;3.55;;;12.30;99.90;;;;;;4973523;28;20549;-73
2023/03/22 04:16:26;;;;;;;5.00;3.97;;;12.30;99.90;;;;;;4957952;28;20194;-73
2023/03/22 04:18:52;;;;;;;4.67;3.70;;;12.30;99.90;;;;;;4973654;28;20611;-73
2023/03/22 04:21:18;;;;;;;4.73;2.67;;;12.30;99.90;;;;;;4973847;28;20640;-73
2023/03/22 04:23:54;;;;;;;5.13;3.30;;;12.30;99.90;;;;;;4989792;28;20227;-73
2023/03/22 04:26:21;;;;;;;8.05;3.60;;;12.30;99.90;;;;;;4990269;28;20283;-73
2023/03/22 04:29:05;;;;;;;4.82;3.30;;;12.20;99.90;;;;;;4989886;28;20290;-73
2023/03/22 04:31:35;;;;;;;6.20;4.30;;;12.20;99.90;;;;;;4973495;28;20168;-73
2023/03/22 04:34:12;;;;;;;7.47;3.72;;;12.20;99.90;;;;;;4973780;28;20196;-73
2023/03/22 04:37:01;;;;;;;6.53;4.57;;;12.20;99.90;;;;;;4973437;28;20219;-73
2023/03/22 04:39:31;;;;;;;9.02;4.95;;;12.20;99.90;;;;;;4989702;28;20242;-73
2023/03/22 04:42:18;;;;;;;5.72;4.07;;;12.20;99.90;;;;;;4973140;28;20239;-73
2023/03/22 04:44:45;;;;;;;6.38;5.07;;;12.10;99.90;;;;;;4957594;28;20190;-72
2023/03/22 04:47:11;;;;;;;6.43;3.75;;;12.10;99.90;;;;;;4989369;28;20530;-72
2023/03/22 04:49:37;;;;;;;7.00;5.73;;;12.10;99.90;;;;;;4974511;28;20218;-72
2023/03/22 04:52:03;;;;;;;6.95;4.25;;;12.10;99.90;;;;;;4972990;28;20186;-74
2023/03/22 04:54:34;;;;;;;6.47;5.07;;;12.10;99.90;;;;;;4972939;28;20703;-74
2023/03/22 04:57:00;;;;;;;4.53;3.60;;;12.10;99.90;;;;;;4957131;28;20223;-72
2023/03/22 04:59:30;;;;;;;5.80;4.13;;;12.10;99.90;;;;;;4973223;28;20691;-71
2023/03/22 05:01:58;;;;;;;5.40;4.13;;;12.10;99.90;;;;;;4973108;28;20228;-72
2023/03/22 05:04:27;;;;;;;5.22;4.30;;;12.00;99.90;;;;;;4989173;28;20262;-72
2023/03/22 05:06:59;;;;;;;7.47;4.78;;;12.10;99.90;;;;;;4973044;28;20639;-72
2023/03/22 05:09:33;;;;;;;6.40;4.45;;;12.10;99.90;;;;;;4972623;28;20207;-73
2023/03/22 05:11:59;;;;;;;5.27;4.73;;;12.10;99.90;;;;;;4972574;28;20183;-73
2023/03/22 05:14:47;;;;;;;7.50;4.20;;;12.10;99.90;;;;;;4978416;28;20242;-73
2023/03/22 05:17:16;;;;;;;7.90;6.22;;;12.10;99.90;;;;;;4975708;28;20183;-73
2023/03/22 05:19:43;;;;;;;6.40;4.25;;;12.10;99.90;;;;;;4989756;28;20195;-73
2023/03/22 05:22:10;;;;;;;5.40;4.17;;;12.10;99.90;;;;;;4988888;28;20589;-73
2023/03/22 05:24:44;;;;;;;6.10;4.95;;;12.10;99.90;;;;;;4972411;28;20206;-73
2023/03/22 05:27:14;;;;;;;5.95;4.88;;;12.10;99.90;;;;;;4956320;28;20696;-73
2023/03/22 05:29:43;;;;;;;8.27;5.30;;;12.10;99.90;;;;;;4971353;28;20231;-74
2023/03/22 05:32:17;;;;;;;9.43;5.03;;;12.10;99.90;;;;;;4956336;28;20172;-73
2023/03/22 05:34:44;;;;;;;11.95;5.70;;;12.10;99.90;;;;;;4956210;28;20175;-73
2023/03/22 05:37:24;;;;;;;7.15;5.40;;;12.10;99.90;;;;;;4972258;28;20195;-74
2023/03/22 05:39:52;;;;;;;8.00;4.20;;;12.10;99.90;;;;;;4956687;28;20688;-73
2023/03/22 05:42:22;;;;;;;5.65;4.00;;;12.10;99.90;;;;;;4972004;28;20175;-73
2023/03/22 05:44:48;;;;;;;7.23;4.93;;;12.10;99.90;;;;;;4972661;28;20180;-73
2023/03/22 05:47:13;;;;;;;7.10;4.93;;;12.10;99.90;;;;;;4972428;28;20188;-73
2023/03/22 05:49:59;;;;;;;8.82;5.20;;;12.10;99.90;;;;;;4975441;28;20210;-73
2023/03/22 05:52:27;;;;;;;6.70;3.78;;;12.10;99.90;;;;;;4963357;28;20202;-73
2023/03/22 05:55:16;;;;;;;8.63;4.97;;;12.10;99.90;;;;;;4954322;28;20230;-73
2023/03/22 05:57:43;;;;;;;4.35;3.95;;;12.20;99.90;;;;;;4955341;28;20230;-73
2023/03/22 06:00:13;;;;;;;6.68;4.80;;;12.30;99.90;;;;;;4963389;28;20270;-73
2023/03/22 06:02:55;;;;;;;4.53;3.63;;;12.30;99.90;;;;;;4986371;28;20246;-73
2023/03/22 06:05:22;;;;;;;6.63;4.50;;;12.40;99.90;;;;;;4966107;28;20174;-74
2023/03/22 06:07:50;;;;;;;6.97;4.18;;;12.50;99.90;;;;;;4975043;28;20171;-74
2023/03/22 06:10:17;;;;;;;5.03;4.20;;;12.60;99.90;;;;;;4966415;28;20245;-73
2023/03/22 06:12:44;;;;;;;9.05;4.90;;;12.60;99.90;;;;;;4989355;28;20175;-73
2023/03/22 06:15:15;;;;;;;8.13;5.00;;;12.70;99.90;;;;;;4990862;28;20171;-73
2023/03/22 06:18:04;;;;;;;7.30;3.90;;;12.80;99.90;;;;;;4988405;28;20207;-74
2023/03/22 06:20:35;;;;;;;7.97;4.10;;;12.90;99.90;;;;;;4967971;28;20192;-73
2023/03/22 06:23:07;;;;;;;4.65;3.20;;;13.00;99.90;;;;;;4987565;28;20622;-73
2023/03/22 06:25:34;;;;;;;5.90;3.72;;;13.10;99.90;;;;;;4971473;28;20190;-74
2023/03/22 06:28:00;;;;;;;5.70;3.37;;;13.10;99.90;;;;;;4971468;28;20180;-74
2023/03/22 06:30:28;;;;;;;5.50;3.70;;;13.20;99.90;;;;;;4971307;28;20655;-74
2023/03/22 06:33:12;;;;;;;5.18;3.83;;;13.20;99.90;;;;;;4971650;28;20583;-74
2023/03/22 06:35:42;;;;;;;6.90;3.37;;;13.30;99.90;;;;;;4955888;28;20184;-73
2023/03/22 06:38:12;;;;;;;3.90;2.73;;;13.40;99.90;;;;;;4955490;28;20590;-74
2023/03/22 06:40:38;;;;;;;5.00;3.20;;;13.40;99.90;;;;;;4971618;28;20615;-74
2023/03/22 06:43:09;;;;;;;6.50;3.37;;;13.50;99.90;;;;;;4955606;28;20595;-74
2023/03/22 06:45:38;;;;;;;6.60;3.03;;;13.60;99.90;;;;;;4971624;28;21353;-74
2023/03/22 06:48:06;;;;;;;7.50;3.50;;;13.70;99.90;;;;;;4971441;28;20599;-74
2023/03/22 06:50:48;;;;;;;5.40;2.87;;;13.80;99.90;;;;;;4973449;28;20997;-74
2023/03/22 06:53:24;;;;;;;4.90;2.80;;;13.80;99.90;;;;;;4973552;28;20570;-74
2023/03/22 06:55:51;;;;;;;4.73;2.97;;;14.00;99.90;;;;;;4958858;28;20622;-74
2023/03/22 06:58:19;;;;;;;4.67;2.57;;;14.10;99.90;;;;;;4960645;28;20682;-74
2023/03/22 07:00:45;;;;;;;5.10;2.20;;;14.20;99.90;;;;;;4955945;28;20691;-74
2023/03/22 07:03:12;;;;;;;4.17;3.17;;;14.30;99.90;;;;;;4971172;28;20182;-74
2023/03/22 07:05:43;;;;;;;4.80;3.33;;;14.40;99.90;;;;;;4980017;28;20614;-74
2023/03/22 07:08:09;;;;;;;5.60;1.80;;;14.50;99.90;;;;;;4967914;28;20583;-74
2023/03/22 07:10:42;;;;;;;7.87;2.57;;;14.60;99.90;;;;;;4990808;28;20222;-74
2023/03/22 07:13:08;;;;;;;5.93;2.77;;;14.60;99.90;;;;;;4990497;28;20950;-75
2023/03/22 07:15:37;;;;;;;7.07;2.53;;;14.60;99.90;;;;;;4990376;28;20601;-75
2023/03/22 07:18:10;;;;;;;4.90;2.20;;;14.70;99.90;;;;;;4993525;28;20643;-73
2023/03/22 07:20:40;;;;;;;5.00;1.43;;;14.70;99.90;;;;;;4990937;28;20621;-73
2023/03/22 07:23:09;;;;;;;4.87;1.90;;;14.70;99.90;;;;;;4975218;28;20603;-73
2023/03/22 07:25:46;;;;;;;5.73;2.60;;;14.80;99.90;;;;;;4958779;28;20590;-74
2023/03/22 07:28:20;;;;;;;4.60;2.20;;;14.90;99.90;;;;;;4975638;28;20598;-73
2023/03/22 07:30:47;;;;;;;3.57;1.70;;;15.10;99.90;;;;;;4958948;28;21292;-73
2023/03/22 07:33:14;;;;;;;5.93;1.87;;;15.40;99.90;;;;;;4991932;28;20587;-74
2023/03/22 07:35:41;;;;;;;3.87;2.13;;;15.60;99.90;;;;;;4975219;28;20594;-74
2023/03/22 07:38:06;;;;;;;4.40;2.10;;;15.60;99.90;;;;;;4975131;28;21150;-74
2023/03/22 07:40:35;;;;;;;4.60;2.13;;;15.70;99.90;;;;;;4960131;28;20192;-74
2023/03/22 07:43:02;;;;;;;7.80;1.63;;;15.90;99.90;;;;;;4960763;28;20689;-74
2023/03/22 07:45:50;;;;;;;3.20;1.23;;;16.30;99.90;;;;;;4977493;28;20673;-74
2023/03/22 07:48:45;;;;;;;3.20;1.80;;;16.70;99.90;;;;;;4972199;28;20623;-74
2023/03/22 07:51:32;;;;;;;5.90;1.53;;;17.10;99.90;;;;;;5017372;28;20933;-74
2023/03/22 07:53:58;;;;;;;6.40;1.90;;;17.60;99.90;;;;;;4988324;28;20591;-75
2023/03/22 07:56:25;;;;;;;4.30;1.43;;;17.90;99.90;;;;;;5006255;28;20646;-75
2023/03/22 07:58:52;;;;;;;5.67;1.70;;;17.90;99.90;;;;;;4990766;28;20623;-75
2023/03/22 08:01:20;;;;;;;3.70;1.47;;;17.80;99.90;;;;;;4967024;28;20995;-75
2023/03/22 08:04:15;;;;;;;3.57;1.50;;;17.70;99.90;;;;;;4968814;28;20238;-75
2023/03/22 08:06:58;;;;;;;4.70;1.80;;;17.50;99.90;;;;;;4988714;28;20735;-75
2023/03/22 08:09:25;;;;;;;3.93;1.70;;;17.30;99.90;;;;;;4998963;28;20753;-75
2023/03/22 08:11:51;;;;;;;5.33;1.97;;;17.20;99.90;;;;;;4996776;28;20598;-74
2023/03/22 08:14:17;;;;;;;5.53;1.60;;;17.50;99.90;;;;;;5000016;28;20664;-74
2023/03/22 08:16:43;;;;;;;4.30;1.43;;;18.00;99.90;;;;;;4983505;28;20649;-74
2023/03/22 08:19:10;;;;;;;4.90;1.77;;;18.60;99.90;;;;;;4996926;28;20626;-74
2023/03/22 08:21:39;;;;;;;4.53;1.30;;;19.30;99.90;;;;;;4997793;28;20596;-74
2023/03/22 08:24:12;;;;;;;3.00;1.83;;;20.00;99.90;;;;;;4980726;28;20693;-74
2023/03/22 08:27:04;;;;;;;3.63;1.10;;;20.80;99.90;;;;;;4981326;28;20605;-75
2023/03/22 08:29:43;;;;;;;4.23;1.20;;;21.60;99.90;;;;;;4972448;28;20654;-74
2023/03/22 08:32:09;;;;;;;4.50;1.23;;;22.30;99.90;;;;;;4974076;28;20621;-74
2023/03/22 08:34:37;;;;;;;5.00;0.87;;;22.80;99.90;;;;;;4958267;28;21416;-74
2023/03/22 08:37:05;;;;;;;3.20;0.80;;;23.20;99.90;;;;;;4974575;28;21034;-73
2023/03/22 08:39:31;;;;;;;2.00;0.70;;;23.30;99.90;;;;;;4974117;28;20625;-74
2023/03/22 08:42:16;;;;;;;3.10;0.80;;;23.40;99.90;;;;;;4973511;28;20614;-74
2023/03/22 08:44:42;;;;;;;3.00;1.00;;;23.50;99.90;;;;;;4974306;28;21192;-74
2023/03/22 08:47:08;;;;;;;2.30;0.63;;;23.60;99.90;;;;;;4973566;28;20180;-74
2023/03/22 08:49:34;;;;;;;2.30;0.70;;;24.00;99.90;;;;;;4973965;28;20298;-74
2023/03/22 08:52:07;;;;;;;3.30;0.70;;;24.50;99.90;;;;;;4957951;28;20594;-74
2023/03/22 08:54:54;;;;;;;3.30;1.10;;;25.10;99.90;;;;;;4966949;28;21077;-74
2023/03/22 08:57:38;;;;;;;2.53;0.60;;;25.60;99.90;;;;;;4973457;28;20603;-73
2023/03/22 09:00:27;;;;;;;2.83;0.90;;;25.90;99.90;;;;;;4978880;28;20649;-73
2023/03/22 09:02:58;;;;;;;3.77;0.70;;;26.10;99.90;;;;;;4976243;28;20656;-73
2023/03/22 09:05:25;;;;;;;3.50;0.93;;;26.00;99.90;;;;;;4992590;28;20590;-73
2023/03/22 09:07:52;;;;;;;1.80;0.60;;;25.70;99.90;;;;;;4976375;28;20594;-73
2023/03/22 09:10:33;;;;;;;2.10;0.87;;;25.40;99.90;;;;;;4972711;28;20647;-73
2023/03/22 09:13:00;;;;;;;1.80;0.67;;;25.10;99.60;;;;;;4972511;28;20587;-73
2023/03/22 09:15:26;;;;;;;1.73;0.60;;;24.70;98.90;;;;;;4973772;28;20922;-73
2023/03/22 09:18:18;;;;;;;1.47;0.63;;;24.30;98.30;;;;;;4971003;28;20599;-73
2023/03/22 09:20:45;;;;;;;1.70;0.60;;;24.00;97.70;;;;;;4974008;28;20579;-73
2023/03/22 09:23:14;;;;;;;2.03;0.60;;;23.90;98.50;;;;;;4972909;28;20595;-72
2023/03/22 09:25:47;;;;;;;1.50;0.60;;;23.90;98.80;;;;;;4956391;28;20673;-73
2023/03/22 09:28:17;;;;;;;2.70;0.90;;;24.00;98.50;;;;;;4956615;28;20598;-73
2023/03/22 09:30:44;;;;;;;2.80;0.70;;;24.30;99.40;;;;;;4955970;28;20638;-73
2023/03/22 09:33:11;;;;;;;2.20;0.70;;;24.50;99.30;;;;;;4956555;28;20610;-73
2023/03/22 09:35:41;;;;;;;4.30;0.70;;;24.70;99.00;;;;;;4972636;28;20602;-73
2023/03/22 09:38:09;;;;;;;3.33;0.60;;;25.20;99.60;;;;;;4956194;28;20983;-72
2023/03/22 09:40:38;;;;;;;1.60;0.70;;;25.90;99.90;;;;;;4972336;28;20621;-73
2023/03/22 09:43:08;;;;;;;1.63;0.50;;;26.60;99.90;;;;;;4972157;28;20622;-73
2023/03/22 09:45:42;;;;;;;1.90;0.60;;;27.40;99.50;;;;;;4973045;28;20975;-72
2023/03/22 09:48:26;;;;;;;2.03;0.60;;;27.90;96.90;;;;;;4971968;28;20579;-72
2023/03/22 09:50:53;;;;;;;2.27;0.60;;;28.20;94.80;;;;;;4973596;28;20612;-72
2023/03/22 09:53:21;;;;;;;2.80;0.70;;;28.20;94.40;;;;;;4973220;28;20636;-72
2023/03/22 09:55:59;;;;;;;3.97;0.60;;;27.90;92.40;;;;;;4988384;28;20651;-72
2023/03/22 09:58:41;;;;;;;1.70;0.53;;;27.60;89.90;;;;;;4987871;28;20618;-73
2023/03/22 10:01:35;;;;;;;4.10;0.60;;;27.20;88.40;;;;;;4988414;28;20610;-74
2023/03/22 10:04:35;;;;;;;2.27;0.60;;;26.60;87.90;;;;;;4972953;28;20585;-73
2023/03/22 10:07:06;;;;;;;2.00;0.60;;;26.10;86.70;;;;;;4973257;28;21028;-73
2023/03/22 10:09:43;;;;;;;1.93;0.60;;;25.60;87.60;;;;;;4971198;28;20682;-73
2023/03/22 10:12:21;;;;;;;1.50;0.50;;;25.40;88.30;;;;;;4988079;28;20610;-73
2023/03/22 10:15:02;;;;;;;2.53;0.60;;;25.10;86.30;;;;;;4973090;28;20645;-72
2023/03/22 10:17:29;;;;;;;2.03;0.60;;;24.70;85.00;;;;;;4971021;28;21205;-72
2023/03/22 10:20:03;;;;;;;2.10;0.60;;;24.50;86.50;;;;;;4971273;28;20631;-73
2023/03/22 10:22:34;;;;;;;1.60;0.60;;;24.50;86.20;;;;;;4971643;28;20595;-72
2023/03/22 10:25:01;;;;;;;1.80;0.50;;;24.60;88.50;;;;;;4971631;28;20599;-72
2023/03/22 10:27:30;;;;;;;1.30;0.40;;;24.70;87.40;;;;;;4970904;28;20623;-72
2023/03/22 10:30:22;;;;;;;2.00;0.60;;;24.60;86.70;;;;;;4971503;28;20655;-72
2023/03/22 10:33:02;;;;;;;1.60;0.60;;;24.50;84.40;;;;;;4971935;28;20630;-72
2023/03/22 10:35:30;;;;;;;2.63;0.50;;;24.30;83.20;;;;;;4971644;28;20635;-72
2023/03/22 10:38:00;;;;;;;3.00;0.90;;;24.20;86.50;;;;;;4972089;28;20563;-72
2023/03/22 10:40:31;;;;;;;2.53;1.30;;;24.30;87.00;;;;;;4971565;28;20619;-72
2023/03/22 10:43:08;;;;;;;1.50;0.70;;;24.30;86.60;;;;;;4972182;28;21112;-71
2023/03/22 10:45:36;;;;;;;1.70;0.50;;;24.30;85.50;;;;;;4972873;28;20645;-72
2023/03/22 10:48:17;;;;;;;1.40;0.50;;;24.20;85.30;;;;;;4972070;28;20582;-72
2023/03/22 10:50:44;;;;;;;1.87;0.63;;;24.00;83.50;;;;;;4976222;28;20646;-72
2023/03/22 10:53:36;;;;;;;1.80;0.50;;;23.70;81.80;;;;;;4984833;28;20594;-72
2023/03/22 10:56:02;;;;;;;3.30;0.60;;;23.30;81.10;;;;;;4991988;28;20579;-72
2023/03/22 10:58:31;;;;;;;2.17;0.60;;;23.00;81.70;;;;;;4991625;28;20586;-72
2023/03/22 11:01:01;;;;;;;1.67;0.63;;;22.60;81.10;;;;;;4991495;28;21010;-73
2023/03/22 11:03:37;;;;;;;3.00;0.67;;;22.20;80.80;;;;;;4990481;28;20582;-73
2023/03/22 11:06:14;;;;;;;2.17;0.60;;;21.90;81.00;;;;;;4973950;28;20578;-73
2023/03/22 11:08:52;;;;;;;1.30;0.50;;;21.60;81.00;;;;;;5006628;28;20617;-73
2023/03/22 11:11:37;;;;;;;1.40;0.70;;;21.20;81.70;;;;;;4990039;28;21233;-73
2023/03/22 11:14:15;;;;;;;2.47;0.60;;;21.00;81.80;;;;;;4991429;28;20582;-72
2023/03/22 11:17:07;;;;;;;3.43;0.60;;;20.80;81.80;;;;;;5006409;28;20612;-73
2023/03/22 11:19:36;;;;;;;3.70;0.70;;;20.60;82.30;;;;;;4991459;28;20664;-72
2023/03/22 11:22:27;;;;;;;3.97;0.70;;;20.30;82.40;;;;;;4991037;28;20656;-72
2023/03/22 11:24:55;;;;;;;1.97;0.60;;;20.10;82.60;;;;;;5006896;28;20622;-72
2023/03/22 11:27:30;;;;;;;1.90;0.70;;;19.90;83.30;;;;;;4990916;28;20617;-73
2023/03/22 11:30:23;;;;;;;1.60;0.60;;;19.80;83.40;;;;;;4991774;28;21079;-73
2023/03/22 11:33:02;;;;;;;2.37;0.90;;;19.70;83.90;;;;;;4990556;28;20609;-73
2023/03/22 11:35:29;;;;;;;1.97;0.60;;;19.60;84.40;;;;;;4991650;28;20633;-73
2023/03/22 11:37:56;;;;;;;2.23;0.70;;;19.60;85.00;;;;;;4991149;28;21185;-72
2023/03/22 11:40:23;;;;;;;2.80;0.70;;;19.50;85.50;;;;;;4991344;28;20598;-73
2023/03/22 11:42:57;;;;;;;2.97;0.60;;;19.50;86.40;;;;;;5006437;28;20689;-73
2023/03/22 11:45:34;;;;;;;1.43;0.67;;;19.50;86.00;;;;;;4990869;28;20648;-73
2023/03/22 11:48:08;;;;;;;1.73;0.80;;;19.50;86.70;;;;;;4991005;28;21127;-72
2023/03/22 11:50:38;;;;;;;4.07;1.10;;;19.50;84.50;;;;;;4989454;28;20741;-71
2023/03/22 11:53:10;;;;;;;1.70;0.77;;;19.40;84.40;;;;;;4991348;28;20905;-72
2023/03/22 11:55:37;;;;;;;5.17;2.07;;;19.20;85.40;;;;;;4990969;28;20582;-72
2023/03/22 11:58:05;;;;;;;3.97;0.83;;;19.10;85.30;;;;;;4985715;28;20636;-72
2023/03/22 12:00:36;;;;;;;2.93;1.40;;;19.00;85.80;;;;;;4953808;28;20757;-72
2023/03/22 12:03:08;;;;;;;3.53;0.93;;;18.90;85.70;;;;;;4972718;28;20673;-72
2023/03/22 12:05:38;;;;;;;2.90;1.00;;;18.80;85.90;;;;;;4974187;28;21208;-71
2023/03/22 12:08:10;;;;;;;2.30;1.03;;;18.70;85.70;;;;;;4973843;28;20606;-72
2023/03/22 12:10:40;;;;;;;3.97;1.00;;;18.50;85.70;;;;;;4975258;28;20798;-72
2023/03/22 12:13:14;;;;;;;2.27;0.80;;;18.40;86.30;;;;;;4974712;28;20952;-72
2023/03/22 12:15:47;;;;;;;2.90;0.93;;;18.30;86.40;;;;;;4973966;28;20578;-72
2023/03/22 12:18:28;;;;;;;3.23;1.47;;;18.20;86.60;;;;;;4974730;28;20570;-72
2023/03/22 12:20:56;;;;;;;2.30;0.80;;;18.10;86.50;;;;;;4975305;28;20583;-73
2023/03/22 12:23:28;;;;;;;3.37;0.97;;;18.10;87.30;;;;;;4974732;28;20578;-72
2023/03/22 12:25:54;;;;;;;2.20;1.20;;;18.00;87.50;;;;;;4975214;28;21150;-72
2023/03/22 12:28:24;;;;;;;2.00;0.80;;;17.90;87.60;;;;;;4956976;28;20633;-72
2023/03/22 12:30:52;;;;;;;2.60;0.90;;;17.80;87.70;;;;;;4990171;28;20203;-72
2023/03/22 12:33:31;;;;;;;2.80;0.87;;;17.70;88.60;;;;;;4974897;28;20571;-72
2023/03/22 12:36:09;;;;;;;3.80;1.00;;;17.60;86.90;;;;;;4989633;28;20586;-72
2023/03/22 12:38:52;;;;;;;3.13;0.80;;;17.50;88.30;;;;;;4973801;28;20677;-72
2023/03/22 12:41:25;;;;;;;3.37;1.00;;;17.50;88.80;;;;;;4989257;28;20993;-72
2023/03/22 12:43:55;;;;;;;3.47;0.80;;;17.50;89.50;;;;;;4974668;28;20621;-72
2023/03/22 12:46:54;;;;;;;1.70;0.70;;;17.40;89.30;;;;;;4974173;28;20702;-73
2023/03/22 12:49:44;;;;;;;2.30;0.83;;;17.40;89.30;;;;;;4974368;28;21105;-73
2023/03/22 12:52:19;;;;;;;3.73;0.83;;;17.40;90.00;;;;;;4989095;28;20582;-72
2023/03/22 12:54:48;;;;;;;1.80;0.70;;;17.40;90.30;;;;;;4974399;28;20562;-72
2023/03/22 12:57:15;;;;;;;3.20;0.80;;;17.40;90.40;;;;;;4974082;28;20926;-73
2023/03/22 12:59:44;;;;;;;4.07;0.80;;;17.30;90.50;;;;;;4974106;28;21109;-73
2023/03/22 13:02:22;;;;;;;3.47;0.87;;;17.30;90.50;;;;;;4973967;28;20982;-73
2023/03/22 13:04:55;;;;;;;4.03;0.80;;;17.20;90.40;;;;;;4973214;28;20618;-73
2023/03/22 13:07:30;;;;;;;3.53;0.87;;;17.10;90.70;;;;;;4972730;28;20678;-73
2023/03/22 13:09:58;;;;;;;1.90;0.80;;;17.10;90.90;;;;;;4974243;28;20711;-73
2023/03/22 13:12:25;;;;;;;1.90;0.70;;;17.10;91.20;;;;;;4974093;28;20616;-72
2023/03/22 13:15:02;;;;;;;2.80;0.87;;;17.10;91.50;;;;;;4973262;28;20579;-73
2023/03/22 13:17:28;;;;;;;4.53;0.83;;;17.10;91.70;;;;;;4974238;28;20591;-73